Terminal Aerodrome Forecast
Issued by NWS Nashville, TN

Home | Current Version | Previous Version | Text Only | Print | Product List | Glossary On
Versions: 1 2 3 4 5 6 7 8 9 10 11 12 13 14 15 16 17 18 19 20 21 22 23
000
FTUS44 KOHX 300520
TAFCSV
TAF
KCSV 300520Z 3006/0106 VRB04KT P6SM OVC100
     FM301800 18010KT 6SM -SHRA BR VCTS SCT025CB BKN040
     FM010200 18005KT P6SM BKN040=

USA.gov is the U.S. government's official web portal to all federal, state and local government web resources and services.